Tisdag 2023-01-31 21:10:03 vecka 5, namnsdag Ivar, Joar, imorgon Max, Maximilian  [Huvudmeny]   minomax.se   minomax.se/metar   minomax.se/flyg   wwwinfo.se   medd.nu  -  meddelanden   kakor METAR-data Visa METAR-temperaturer och data
Land: skriv landsbeteckning, 2 bokstäver, tex. se för Sverige. Sök land Sökord: skriv sökord, eller lämna tomt så visas alla Visar METAR för SE- Sverige Land/ IATA/ICAO Id Flygplats Temp Tid Datum region METAR... ---- ------------------------- ---- ----- ---------- ------ --- ------------... ESCF Linköping/Malmen Air Base 1 20:50 2023-01-31 SE-E --- ESCF 311950Z AUTO 15004KT 8000 -SN VV032 01/M00 Q0990= ESCM Uppsala Airport -3 20:50 2023-01-31 SE-C --- ESCM 311950Z AUTO 20003KT 9999 NCD M03/M06 Q0991= ESDF Ronneby Airport 3 20:50 2023-01-31 SE-K RNB ESDF 311950Z 27011G21KT 9999 -RA BKN011 03/02 Q0994= ESGG Gothenburg-Landvetter Air 3 20:50 2023-01-31 SE-Q GOT ESGG 311950Z 27012G22KT 9999 SCT018 03/00 Q0992= ESGJ Jönköping Airport 1 20:50 2023-01-31 SE-F JKG ESGJ 311950Z 26010KT 8000 -SN VV011 01/01 Q0990=
ESGP Gothenburg City Airport 4 20:50 2023-01-31 SE-Q GSE ESGP 311950Z 28017KT CAVOK 04/01 Q0992= ESGR Skövde Airport 3 (14:50 2022-03-31) SE-Q KVB ESGR 311250Z AUTO /////KT 9999 -RA OVC055/// 03/M08 Q1011 REUP= ESGT Trollhättan-Vänersborg Ai 3 20:50 2023-01-31 SE-Q THN ESGT 311950Z AUTO 27009KT 9999 R15///// R33///// NCD 03/01 Q0991= ESIA Karlsborg Air Base 0 20:50 2023-01-31 SE-Q --- ESIA 311950Z AUTO VRB01KT 3400 -SN VV004 00/00 Q0990= ESIB Såtenäs Air Base 2 20:50 2023-01-31 SE-Q --- ESIB 311950Z AUTO 26008KT 9999 SCT013/// BKN018/// OVC110/// 02/02 Q0990=
ESKM Mora Airport -7 20:50 2023-01-31 SE-W MXX ESKM 311950Z AUTO 33003KT 9999 BKN076/// M07/M08 Q0989= ESKN Stockholm / Nyköping/Stoc -3 20:50 2023-01-31 SE-D NYO ESKN 311950Z VRB01KT CAVOK M03/M05 Q0991= ESKS Sälen - Trysil Airport -7 20:50 2023-01-31 SE-W SCR ESKS 311950Z AUTO 06003KT 9999 FEW020/// BKN059/// OVC086/// M07/M11 Q0987= ESMK Kristianstad Airport 4 20:50 2023-01-31 SE-M KID ESMK 311950Z AUTO 28015G26KT 9999 OVC021/// 04/02 Q0996 REDZ= ESMQ Kalmar Airport 3 20:50 2023-01-31 SE-H KLR ESMQ 311950Z AUTO 27010KT 6000 -RA FEW007/// BKN011/// 03/02 Q0992=
ESMS Malmö Sturup Airport 4 20:50 2023-01-31 SE-M MMX ESMS 311950Z 29019KT 9999 BKN019 OVC027 04/01 Q0999= ESMT Halmstad Airport 4 20:50 2023-01-31 SE-N HAD ESMT 311950Z AUTO 28018KT 9999 FEW013/// SCT016/// BKN020/// 04/02 Q0995= ESMV Hagshult Air Base 12 (15:20 2022-10-31) SE-F --- ESMV 311420Z AUTO 20003KT 170V230 9999 FEW015/// SCT021/// 12/12 Q1019= ESMX Växjö Kronoberg Airport 2 20:50 2023-01-31 SE-G VXO ESMX 311950Z AUTO 26012KT 9999 OVC006/// 02/02 Q0991= ESND Sveg Airport -14 20:50 2023-01-31 SE-Z EVG ESND 311950Z AUTO 00000KT 9999 NCD M14/M15 Q0989=
ESNG Gällivare Airport -14 20:50 2023-01-31 SE-BD GEV ESNG 311950Z 32006KT CAVOK M14/M16 Q0983= ESNK Kramfors / Sollefteå/Kram XXX 20:50 2023-01-31 SE-Y KRF ESNK 311950Z AUTO 36003KT 9999 OVC026/// ///// Q0988= ESNL Lycksele Airport -19 20:50 2023-01-31 SE-AC LYC ESNL 311950Z AUTO 29002KT 9999 NCD M19/M21 Q0987= ESNN Sundsvall/ Härnösand/Sund -5 20:50 2023-01-31 SE-Y SDL ESNN 311950Z AUTO VRB03KT 9999 NCD M05/M06 Q0989= ESNO Örnsköldsvik Airport -9 20:50 2023-01-31 SE-Y OER ESNO 311950Z AUTO 30004KT 9999 NCD M09/M09 Q0987=
ESNQ Kiruna Airport -4 20:50 2023-01-31 SE-BD KRN ESNQ 311950Z AUTO 34005KT 300V010 9999 NCD M04/M09 Q0982= ESNS Skellefteå Airport -13 20:50 2023-01-31 SE-AC SFT ESNS 311950Z 22005KT 190V250 CAVOK M13/M14 Q0986= ESNU Umeå Airport -17 20:50 2023-01-31 SE-AC UME ESNU 311950Z 00000KT CAVOK M17/M19 Q0988= ESNV Vilhelmina Airport -19 20:20 2023-01-31 SE-AC VHM ESNV 311920Z 13002KT 0250 R10/1200D R28/0800N FG VV001 M19/M21 Q0987= ESNX Arvidsjaur Airport -16 20:50 2023-01-31 SE-BD AJR ESNX 311950Z 29002KT CAVOK M16/M18 Q0985=
ESNZ Åre Östersund Airport -6 20:50 2023-01-31 SE-Z OSD ESNZ 311950Z 26008KT CAVOK M06/M07 Q0987= ESOE Örebro Airport 0 20:50 2023-01-31 SE-T ORB ESOE 311950Z 00000KT 9999 BKN025 00/M03 Q0990= ESOH Hagfors Airport -2 20:50 2023-01-31 SE-S HFS ESOH 311950Z AUTO 00000KT 9999 BKN021/// OVC025/// M02/M03 Q0990 REFZUP= ESOK Karlstad Airport -1 20:50 2023-01-31 SE-S KSD ESOK 311950Z AUTO 05003KT 1800 -SN BKN003/// OVC007/// M01/M02 Q0989= ESOW Stockholm Västerås Airpor -6 20:50 2023-01-31 SE-U VST ESOW 311950Z AUTO 00000KT 9999 NCD M06/M07 Q0991=
ESPA Luleå Airport -13 20:50 2023-01-31 SE-BD LLA ESPA 311950Z 32003KT CAVOK M13/M14 Q0985= ESPE Vidsel Air Base -18 20:50 2023-01-31 SE-BD --- ESPE 311950Z AUTO 00000KT 9999 NCD M18/M20 Q0986= ESSA Stockholm-Arlanda Airport -4 20:50 2023-01-31 SE-AB ARN ESSA 311950Z 21003KT CAVOK M04/M07 Q0990 NOSIG= ESSB Stockholm-Bromma Airport -4 20:50 2023-01-31 SE-AB BMA ESSB 311950Z 00000KT CAVOK M04/M07 Q0991= ESSD Borlange Airport -5 20:50 2023-01-31 SE-W BLE ESSD 311950Z AUTO 27004KT 9999 SCT064/// M05/M08 Q0989=
ESSL Linköping City Airport 0 20:50 2023-01-31 SE-E LPI ESSL 311950Z AUTO 12003KT 9999 FEW015/// BKN018/// OVC059/// 00/M01 Q0990= ESSP Norrköping Airport -2 20:50 2023-01-31 SE-E NRK ESSP 311950Z AUTO 09003KT 9999 FEW080/// M02/M04 Q0991= ESST Torsby Airport -2 20:50 2023-01-31 SE-S TYF ESST 311950Z AUTO 00000KT 4700 -RASN ///024/// M02/M03 Q0990 REFZUP= ESSV Visby Airport 2 20:50 2023-01-31 SE-I VBY ESSV 311950Z AUTO 17004KT 9999 OVC007/// 02/01 Q0991= ESTA Ängelholm-Helsingborg Air 4 20:50 2023-01-31 SE-M AGH ESTA 311950Z 28020KT 9999 OVC017 04/02 Q0997=
ESTL Ljungbyhed Airport 4 20:50 2023-01-31 SE-M --- ESTL 311950Z AUTO 27024G34KT 9999 FEW016/// BKN019/// OVC025/// 04/02 Q0997= ESUP Pajala Airport XXX 20:50 2023-01-31 SE-BD PJA ESUP 311950Z AUTO 30006KT //// // OVC034/// ///// Q0982= ESUT Hemavan Airport -14 20:50 2023-01-31 SE-AC HMV ESUT 311950Z AUTO 16005KT 9999 OVC021/// M14/M15 Q0986= (48 rader visades) Du kan lägga till id-beteckningen först på raden i valfri Lista 1 - 5 [top] ↕°C [1] [2] [3] [4] [5] ??? LISTOR 00-nr NOT MEDD MT METAR SYNOP SE SE-AB SE-C SE-D SE-E SE-F SE-G SE-H SE-I SE-K SE-M SE-N SE-O SE-P SE-T SE-U SE-W SE-X SE-Y SE-Z SE-AC SE-BD rådata flyg flyg_osd